sensor_id;sensor_type;location;lat;lon;timestamp;P1;durP1;ratioP1;P2;durP2;ratioP2
6135;SDS011;24008;42.664;23.372;2023-06-24T00:02:02;15.30;;;12.93;;
6135;SDS011;24008;42.664;23.372;2023-06-24T00:04:29;16.23;;;13.07;;
6135;SDS011;24008;42.664;23.372;2023-06-24T00:06:55;18.38;;;13.68;;
6135;SDS011;24008;42.664;23.372;2023-06-24T00:09:24;15.68;;;13.23;;
6135;SDS011;24008;42.664;23.372;2023-06-24T00:11:52;15.73;;;13.95;;
6135;SDS011;24008;42.664;23.372;2023-06-24T00:14:19;17.67;;;13.77;;
6135;SDS011;24008;42.664;23.372;2023-06-24T00:16:47;19.77;;;13.93;;
6135;SDS011;24008;42.664;23.372;2023-06-24T00:19:18;16.65;;;13.70;;
6135;SDS011;24008;42.664;23.372;2023-06-24T00:21:45;16.10;;;13.27;;
6135;SDS011;24008;42.664;23.372;2023-06-24T00:24:12;17.08;;;13.40;;
6135;SDS011;24008;42.664;23.372;2023-06-24T00:26:38;16.65;;;14.05;;
6135;SDS011;24008;42.664;23.372;2023-06-24T00:29:05;15.98;;;13.60;;
6135;SDS011;24008;42.664;23.372;2023-06-24T00:31:32;19.92;;;14.13;;
6135;SDS011;24008;42.664;23.372;2023-06-24T00:33:59;16.98;;;13.65;;
6135;SDS011;24008;42.664;23.372;2023-06-24T00:36:27;18.67;;;14.15;;
6135;SDS011;24008;42.664;23.372;2023-06-24T00:38:55;16.38;;;14.13;;
6135;SDS011;24008;42.664;23.372;2023-06-24T00:41:22;16.98;;;14.27;;
6135;SDS011;24008;42.664;23.372;2023-06-24T00:43:49;18.40;;;14.43;;
6135;SDS011;24008;42.664;23.372;2023-06-24T00:46:16;16.55;;;13.98;;
6135;SDS011;24008;42.664;23.372;2023-06-24T00:48:44;15.95;;;13.93;;
6135;SDS011;24008;42.664;23.372;2023-06-24T00:51:11;21.10;;;15.05;;
6135;SDS011;24008;42.664;23.372;2023-06-24T00:53:40;19.42;;;15.18;;
6135;SDS011;24008;42.664;23.372;2023-06-24T00:56:06;22.00;;;17.52;;
6135;SDS011;24008;42.664;23.372;2023-06-24T00:58:33;17.73;;;14.68;;
6135;SDS011;24008;42.664;23.372;2023-06-24T01:01:04;20.88;;;16.63;;
6135;SDS011;24008;42.664;23.372;2023-06-24T01:03:34;20.55;;;13.95;;
6135;SDS011;24008;42.664;23.372;2023-06-24T01:06:05;18.98;;;14.48;;
6135;SDS011;24008;42.664;23.372;2023-06-24T01:08:32;18.98;;;14.70;;
6135;SDS011;24008;42.664;23.372;2023-06-24T01:11:01;17.35;;;14.50;;
6135;SDS011;24008;42.664;23.372;2023-06-24T01:13:28;18.65;;;14.93;;
6135;SDS011;24008;42.664;23.372;2023-06-24T01:15:55;16.85;;;13.55;;
6135;SDS011;24008;42.664;23.372;2023-06-24T01:18:28;17.98;;;14.52;;
6135;SDS011;24008;42.664;23.372;2023-06-24T01:21:02;22.85;;;14.77;;
6135;SDS011;24008;42.664;23.372;2023-06-24T01:23:41;18.48;;;14.52;;
6135;SDS011;24008;42.664;23.372;2023-06-24T01:26:31;21.20;;;15.00;;
6135;SDS011;24008;42.664;23.372;2023-06-24T01:29:09;18.58;;;14.95;;
6135;SDS011;24008;42.664;23.372;2023-06-24T01:32:02;19.77;;;14.73;;
6135;SDS011;24008;42.664;23.372;2023-06-24T01:34:34;15.65;;;13.95;;
6135;SDS011;24008;42.664;23.372;2023-06-24T01:37:08;17.05;;;13.98;;
6135;SDS011;24008;42.664;23.372;2023-06-24T01:39:40;17.73;;;13.77;;
6135;SDS011;24008;42.664;23.372;2023-06-24T01:42:12;17.10;;;14.68;;
6135;SDS011;24008;42.664;23.372;2023-06-24T01:44:42;17.90;;;14.65;;
6135;SDS011;24008;42.664;23.372;2023-06-24T01:47:11;16.95;;;14.00;;
6135;SDS011;24008;42.664;23.372;2023-06-24T01:49:44;18.63;;;13.63;;
6135;SDS011;24008;42.664;23.372;2023-06-24T01:52:11;18.38;;;14.32;;
6135;SDS011;24008;42.664;23.372;2023-06-24T01:54:41;19.55;;;15.20;;
6135;SDS011;24008;42.664;23.372;2023-06-24T01:57:08;18.73;;;15.02;;
6135;SDS011;24008;42.664;23.372;2023-06-24T01:59:39;20.98;;;15.20;;
6135;SDS011;24008;42.664;23.372;2023-06-24T02:02:08;19.10;;;14.90;;
6135;SDS011;24008;42.664;23.372;2023-06-24T02:04:37;18.65;;;14.80;;
6135;SDS011;24008;42.664;23.372;2023-06-24T02:07:05;17.83;;;15.45;;
6135;SDS011;24008;42.664;23.372;2023-06-24T02:09:34;20.58;;;15.85;;
6135;SDS011;24008;42.664;23.372;2023-06-24T02:12:02;18.20;;;15.52;;
6135;SDS011;24008;42.664;23.372;2023-06-24T02:14:31;19.83;;;15.40;;
6135;SDS011;24008;42.664;23.372;2023-06-24T02:16:59;20.58;;;15.38;;
6135;SDS011;24008;42.664;23.372;2023-06-24T02:19:30;19.88;;;15.40;;
6135;SDS011;24008;42.664;23.372;2023-06-24T02:21:58;19.35;;;15.20;;
6135;SDS011;24008;42.664;23.372;2023-06-24T02:24:26;25.48;;;15.32;;
6135;SDS011;24008;42.664;23.372;2023-06-24T02:26:54;20.17;;;15.32;;
6135;SDS011;24008;42.664;23.372;2023-06-24T02:29:24;20.03;;;15.57;;
6135;SDS011;24008;42.664;23.372;2023-06-24T02:31:53;21.07;;;15.77;;
6135;SDS011;24008;42.664;23.372;2023-06-24T02:34:22;18.63;;;15.97;;
6135;SDS011;24008;42.664;23.372;2023-06-24T02:36:49;21.10;;;16.10;;
6135;SDS011;24008;42.664;23.372;2023-06-24T02:39:17;22.33;;;16.02;;
6135;SDS011;24008;42.664;23.372;2023-06-24T02:41:44;20.55;;;16.13;;
6135;SDS011;24008;42.664;23.372;2023-06-24T02:44:12;22.05;;;16.95;;
6135;SDS011;24008;42.664;23.372;2023-06-24T02:46:39;20.73;;;16.70;;
6135;SDS011;24008;42.664;23.372;2023-06-24T02:49:08;20.30;;;16.10;;
6135;SDS011;24008;42.664;23.372;2023-06-24T02:51:37;18.02;;;15.85;;
6135;SDS011;24008;42.664;23.372;2023-06-24T02:54:05;19.83;;;16.27;;
6135;SDS011;24008;42.664;23.372;2023-06-24T02:56:34;20.70;;;17.55;;
6135;SDS011;24008;42.664;23.372;2023-06-24T02:59:01;19.55;;;16.60;;
6135;SDS011;24008;42.664;23.372;2023-06-24T03:01:28;20.02;;;16.30;;
6135;SDS011;24008;42.664;23.372;2023-06-24T03:03:56;21.63;;;16.88;;
6135;SDS011;24008;42.664;23.372;2023-06-24T03:06:23;24.05;;;18.42;;
6135;SDS011;24008;42.664;23.372;2023-06-24T03:08:51;22.40;;;17.57;;
6135;SDS011;24008;42.664;23.372;2023-06-24T03:11:18;24.00;;;18.27;;
6135;SDS011;24008;42.664;23.372;2023-06-24T03:13:46;27.10;;;18.10;;
6135;SDS011;24008;42.664;23.372;2023-06-24T03:16:13;29.53;;;18.70;;
6135;SDS011;24008;42.664;23.372;2023-06-24T03:18:41;25.50;;;17.92;;
6135;SDS011;24008;42.664;23.372;2023-06-24T03:21:08;31.13;;;19.73;;
6135;SDS011;24008;42.664;23.372;2023-06-24T03:23:35;24.43;;;18.67;;
6135;SDS011;24008;42.664;23.372;2023-06-24T03:26:02;23.03;;;18.80;;
6135;SDS011;24008;42.664;23.372;2023-06-24T03:28:30;27.40;;;20.37;;
6135;SDS011;24008;42.664;23.372;2023-06-24T03:30:59;22.77;;;18.97;;
6135;SDS011;24008;42.664;23.372;2023-06-24T03:33:26;26.00;;;18.87;;
6135;SDS011;24008;42.664;23.372;2023-06-24T03:35:53;26.42;;;19.80;;
6135;SDS011;24008;42.664;23.372;2023-06-24T03:38:20;25.03;;;18.47;;
6135;SDS011;24008;42.664;23.372;2023-06-24T03:40:47;21.47;;;17.93;;
6135;SDS011;24008;42.664;23.372;2023-06-24T03:43:14;22.70;;;17.75;;
6135;SDS011;24008;42.664;23.372;2023-06-24T03:45:41;24.58;;;18.63;;
6135;SDS011;24008;42.664;23.372;2023-06-24T03:48:09;28.83;;;20.55;;
6135;SDS011;24008;42.664;23.372;2023-06-24T03:50:36;26.67;;;19.50;;
6135;SDS011;24008;42.664;23.372;2023-06-24T03:53:03;31.05;;;20.02;;
6135;SDS011;24008;42.664;23.372;2023-06-24T03:55:30;24.83;;;19.75;;
6135;SDS011;24008;42.664;23.372;2023-06-24T03:57:57;23.15;;;18.35;;
6135;SDS011;24008;42.664;23.372;2023-06-24T04:00:24;25.45;;;18.98;;
6135;SDS011;24008;42.664;23.372;2023-06-24T04:02:51;24.08;;;19.33;;
6135;SDS011;24008;42.664;23.372;2023-06-24T04:05:19;22.50;;;18.45;;
6135;SDS011;24008;42.664;23.372;2023-06-24T04:07:47;25.73;;;20.08;;
6135;SDS011;24008;42.664;23.372;2023-06-24T04:10:17;26.35;;;19.73;;
6135;SDS011;24008;42.664;23.372;2023-06-24T04:12:44;22.15;;;18.77;;
6135;SDS011;24008;42.664;23.372;2023-06-24T04:15:11;24.20;;;18.95;;
6135;SDS011;24008;42.664;23.372;2023-06-24T04:17:38;23.55;;;19.80;;
6135;SDS011;24008;42.664;23.372;2023-06-24T04:20:05;29.88;;;19.13;;
6135;SDS011;24008;42.664;23.372;2023-06-24T04:22:36;24.77;;;19.58;;
6135;SDS011;24008;42.664;23.372;2023-06-24T04:25:04;26.08;;;20.48;;
6135;SDS011;24008;42.664;23.372;2023-06-24T04:27:32;26.73;;;20.67;;
6135;SDS011;24008;42.664;23.372;2023-06-24T04:29:59;26.27;;;21.17;;
6135;SDS011;24008;42.664;23.372;2023-06-24T04:32:26;27.63;;;18.90;;
6135;SDS011;24008;42.664;23.372;2023-06-24T04:34:52;25.98;;;19.70;;
6135;SDS011;24008;42.664;23.372;2023-06-24T04:37:19;25.23;;;18.98;;
6135;SDS011;24008;42.664;23.372;2023-06-24T04:39:47;26.58;;;17.60;;
6135;SDS011;24008;42.664;23.372;2023-06-24T04:42:15;22.27;;;17.77;;
6135;SDS011;24008;42.664;23.372;2023-06-24T04:44:42;24.15;;;17.40;;
6135;SDS011;24008;42.664;23.372;2023-06-24T04:47:08;24.42;;;17.67;;
6135;SDS011;24008;42.664;23.372;2023-06-24T04:49:35;19.15;;;16.70;;
6135;SDS011;24008;42.664;23.372;2023-06-24T04:52:02;21.48;;;18.50;;
6135;SDS011;24008;42.664;23.372;2023-06-24T04:54:30;21.92;;;16.02;;
6135;SDS011;24008;42.664;23.372;2023-06-24T04:56:58;18.73;;;15.00;;
6135;SDS011;24008;42.664;23.372;2023-06-24T04:59:24;15.60;;;12.82;;
6135;SDS011;24008;42.664;23.372;2023-06-24T05:01:51;17.48;;;13.70;;
6135;SDS011;24008;42.664;23.372;2023-06-24T05:04:18;20.45;;;13.25;;
6135;SDS011;24008;42.664;23.372;2023-06-24T05:06:45;18.00;;;13.60;;
6135;SDS011;24008;42.664;23.372;2023-06-24T05:09:12;16.05;;;13.55;;
6135;SDS011;24008;42.664;23.372;2023-06-24T05:11:39;14.40;;;12.93;;
6135;SDS011;24008;42.664;23.372;2023-06-24T05:14:07;17.05;;;13.35;;
6135;SDS011;24008;42.664;23.372;2023-06-24T05:16:34;17.02;;;14.50;;
6135;SDS011;24008;42.664;23.372;2023-06-24T05:19:01;17.10;;;13.38;;
6135;SDS011;24008;42.664;23.372;2023-06-24T05:21:28;15.10;;;12.55;;
6135;SDS011;24008;42.664;23.372;2023-06-24T05:23:57;18.90;;;14.57;;
6135;SDS011;24008;42.664;23.372;2023-06-24T05:26:23;21.58;;;15.80;;
6135;SDS011;24008;42.664;23.372;2023-06-24T05:28:50;16.20;;;13.55;;
6135;SDS011;24008;42.664;23.372;2023-06-24T05:31:18;20.55;;;14.40;;
6135;SDS011;24008;42.664;23.372;2023-06-24T05:33:45;18.33;;;14.18;;
6135;SDS011;24008;42.664;23.372;2023-06-24T05:36:12;17.27;;;15.13;;
6135;SDS011;24008;42.664;23.372;2023-06-24T05:38:39;21.02;;;16.77;;
6135;SDS011;24008;42.664;23.372;2023-06-24T05:41:06;22.70;;;17.15;;
6135;SDS011;24008;42.664;23.372;2023-06-24T05:43:33;22.45;;;17.52;;
6135;SDS011;24008;42.664;23.372;2023-06-24T05:45:59;23.13;;;17.05;;
6135;SDS011;24008;42.664;23.372;2023-06-24T05:48:28;23.17;;;17.80;;
6135;SDS011;24008;42.664;23.372;2023-06-24T05:50:55;21.92;;;17.63;;
6135;SDS011;24008;42.664;23.372;2023-06-24T05:53:21;20.55;;;17.35;;
6135;SDS011;24008;42.664;23.372;2023-06-24T05:55:48;18.92;;;17.02;;
6135;SDS011;24008;42.664;23.372;2023-06-24T05:58:15;23.10;;;17.55;;
6135;SDS011;24008;42.664;23.372;2023-06-24T06:00:42;20.60;;;17.55;;
6135;SDS011;24008;42.664;23.372;2023-06-24T06:03:09;21.58;;;17.45;;
6135;SDS011;24008;42.664;23.372;2023-06-24T06:05:37;21.58;;;17.25;;
6135;SDS011;24008;42.664;23.372;2023-06-24T06:08:04;22.98;;;17.10;;
6135;SDS011;24008;42.664;23.372;2023-06-24T06:10:31;23.75;;;17.63;;
6135;SDS011;24008;42.664;23.372;2023-06-24T06:12:57;26.05;;;17.98;;
6135;SDS011;24008;42.664;23.372;2023-06-24T06:15:24;23.27;;;18.13;;
6135;SDS011;24008;42.664;23.372;2023-06-24T06:17:51;27.73;;;17.98;;
6135;SDS011;24008;42.664;23.372;2023-06-24T06:20:18;22.73;;;17.98;;
6135;SDS011;24008;42.664;23.372;2023-06-24T06:22:46;19.55;;;17.20;;
6135;SDS011;24008;42.664;23.372;2023-06-24T06:25:13;22.70;;;17.80;;
6135;SDS011;24008;42.664;23.372;2023-06-24T06:27:40;18.17;;;16.17;;
6135;SDS011;24008;42.664;23.372;2023-06-24T06:30:07;18.42;;;16.17;;
6135;SDS011;24008;42.664;23.372;2023-06-24T06:32:34;18.38;;;15.35;;
6135;SDS011;24008;42.664;23.372;2023-06-24T06:35:01;20.65;;;16.48;;
6135;SDS011;24008;42.664;23.372;2023-06-24T06:37:28;17.80;;;15.18;;
6135;SDS011;24008;42.664;23.372;2023-06-24T06:39:56;17.55;;;15.68;;
6135;SDS011;24008;42.664;23.372;2023-06-24T06:42:23;17.38;;;15.32;;
6135;SDS011;24008;42.664;23.372;2023-06-24T06:44:50;18.02;;;15.50;;
6135;SDS011;24008;42.664;23.372;2023-06-24T06:47:17;16.52;;;14.93;;
6135;SDS011;24008;42.664;23.372;2023-06-24T06:49:43;22.17;;;15.20;;
6135;SDS011;24008;42.664;23.372;2023-06-24T06:52:10;17.67;;;15.85;;
6135;SDS011;24008;42.664;23.372;2023-06-24T06:54:37;17.70;;;15.77;;
6135;SDS011;24008;42.664;23.372;2023-06-24T06:57:05;18.45;;;15.48;;
6135;SDS011;24008;42.664;23.372;2023-06-24T06:59:32;18.30;;;14.63;;
6135;SDS011;24008;42.664;23.372;2023-06-24T07:01:59;19.63;;;14.82;;
6135;SDS011;24008;42.664;23.372;2023-06-24T07:04:26;16.90;;;14.85;;
6135;SDS011;24008;42.664;23.372;2023-06-24T07:06:52;19.42;;;14.77;;
6135;SDS011;24008;42.664;23.372;2023-06-24T07:09:19;15.88;;;14.30;;
6135;SDS011;24008;42.664;23.372;2023-06-24T07:11:46;16.35;;;14.13;;
6135;SDS011;24008;42.664;23.372;2023-06-24T07:14:14;16.75;;;14.70;;
6135;SDS011;24008;42.664;23.372;2023-06-24T07:16:41;16.67;;;14.40;;
6135;SDS011;24008;42.664;23.372;2023-06-24T07:19:07;16.10;;;14.40;;
6135;SDS011;24008;42.664;23.372;2023-06-24T07:21:34;16.80;;;14.13;;
6135;SDS011;24008;42.664;23.372;2023-06-24T07:24:01;21.77;;;14.23;;
6135;SDS011;24008;42.664;23.372;2023-06-24T07:26:28;16.55;;;14.20;;
6135;SDS011;24008;42.664;23.372;2023-06-24T07:28:56;16.83;;;13.93;;
6135;SDS011;24008;42.664;23.372;2023-06-24T07:31:25;15.15;;;13.35;;
6135;SDS011;24008;42.664;23.372;2023-06-24T07:33:52;15.38;;;13.25;;
6135;SDS011;24008;42.664;23.372;2023-06-24T07:36:18;16.45;;;13.68;;
6135;SDS011;24008;42.664;23.372;2023-06-24T07:38:45;17.20;;;14.23;;
6135;SDS011;24008;42.664;23.372;2023-06-24T07:41:12;15.25;;;13.65;;
6135;SDS011;24008;42.664;23.372;2023-06-24T07:43:38;18.60;;;13.43;;
6135;SDS011;24008;42.664;23.372;2023-06-24T07:46:05;17.65;;;14.63;;
6135;SDS011;24008;42.664;23.372;2023-06-24T07:48:33;15.57;;;14.07;;
6135;SDS011;24008;42.664;23.372;2023-06-24T07:51:00;17.33;;;14.35;;
6135;SDS011;24008;42.664;23.372;2023-06-24T07:53:27;16.77;;;13.93;;
6135;SDS011;24008;42.664;23.372;2023-06-24T07:55:54;17.80;;;13.38;;
6135;SDS011;24008;42.664;23.372;2023-06-24T07:58:20;15.90;;;13.38;;
6135;SDS011;24008;42.664;23.372;2023-06-24T08:00:47;20.35;;;14.05;;
6135;SDS011;24008;42.664;23.372;2023-06-24T08:03:14;17.52;;;14.43;;
6135;SDS011;24008;42.664;23.372;2023-06-24T08:05:43;20.40;;;15.00;;
6135;SDS011;24008;42.664;23.372;2023-06-24T08:08:10;16.20;;;14.55;;
6135;SDS011;24008;42.664;23.372;2023-06-24T08:10:37;16.95;;;15.15;;
6135;SDS011;24008;42.664;23.372;2023-06-24T08:13:04;17.05;;;13.98;;
6135;SDS011;24008;42.664;23.372;2023-06-24T08:15:30;15.90;;;13.73;;
6135;SDS011;24008;42.664;23.372;2023-06-24T08:17:57;15.85;;;13.27;;
6135;SDS011;24008;42.664;23.372;2023-06-24T08:20:24;17.52;;;14.40;;
6135;SDS011;24008;42.664;23.372;2023-06-24T08:22:53;18.25;;;14.35;;
6135;SDS011;24008;42.664;23.372;2023-06-24T08:25:20;16.20;;;14.18;;
6135;SDS011;24008;42.664;23.372;2023-06-24T08:27:46;16.60;;;14.32;;
6135;SDS011;24008;42.664;23.372;2023-06-24T08:30:13;16.02;;;14.35;;
6135;SDS011;24008;42.664;23.372;2023-06-24T08:32:41;15.25;;;13.75;;
6135;SDS011;24008;42.664;23.372;2023-06-24T08:35:08;15.63;;;13.98;;
6135;SDS011;24008;42.664;23.372;2023-06-24T08:37:35;16.05;;;14.18;;
6135;SDS011;24008;42.664;23.372;2023-06-24T08:40:04;16.13;;;13.85;;
6135;SDS011;24008;42.664;23.372;2023-06-24T08:42:32;15.73;;;14.13;;
6135;SDS011;24008;42.664;23.372;2023-06-24T08:44:59;15.80;;;13.90;;
6135;SDS011;24008;42.664;23.372;2023-06-24T08:47:26;17.08;;;13.80;;
6135;SDS011;24008;42.664;23.372;2023-06-24T08:50:00;18.10;;;13.52;;
6135;SDS011;24008;42.664;23.372;2023-06-24T08:52:30;15.02;;;13.52;;
6135;SDS011;24008;42.664;23.372;2023-06-24T08:54:59;15.05;;;13.55;;
6135;SDS011;24008;42.664;23.372;2023-06-24T08:57:29;15.55;;;13.75;;
6135;SDS011;24008;42.664;23.372;2023-06-24T08:59:56;16.13;;;14.63;;
6135;SDS011;24008;42.664;23.372;2023-06-24T09:02:23;17.83;;;14.02;;
6135;SDS011;24008;42.664;23.372;2023-06-24T09:04:50;15.07;;;13.68;;
6135;SDS011;24008;42.664;23.372;2023-06-24T09:07:23;18.83;;;12.82;;
6135;SDS011;24008;42.664;23.372;2023-06-24T09:09:52;15.93;;;13.50;;
6135;SDS011;24008;42.664;23.372;2023-06-24T09:12:19;14.93;;;13.43;;
6135;SDS011;24008;42.664;23.372;2023-06-24T09:14:49;16.73;;;12.85;;
6135;SDS011;24008;42.664;23.372;2023-06-24T09:17:16;15.90;;;13.57;;
6135;SDS011;24008;42.664;23.372;2023-06-24T09:19:47;15.38;;;12.88;;
6135;SDS011;24008;42.664;23.372;2023-06-24T09:22:14;17.95;;;12.75;;
6135;SDS011;24008;42.664;23.372;2023-06-24T09:24:43;14.68;;;13.10;;
6135;SDS011;24008;42.664;23.372;2023-06-24T09:27:12;14.38;;;12.80;;
6135;SDS011;24008;42.664;23.372;2023-06-24T09:29:39;16.83;;;13.60;;
6135;SDS011;24008;42.664;23.372;2023-06-24T09:32:09;14.23;;;12.73;;
6135;SDS011;24008;42.664;23.372;2023-06-24T09:34:36;14.95;;;13.45;;
6135;SDS011;24008;42.664;23.372;2023-06-24T09:37:03;15.07;;;13.55;;
6135;SDS011;24008;42.664;23.372;2023-06-24T09:39:34;16.80;;;13.60;;
6135;SDS011;24008;42.664;23.372;2023-06-24T09:42:02;15.30;;;13.30;;
6135;SDS011;24008;42.664;23.372;2023-06-24T09:44:32;14.10;;;12.73;;
6135;SDS011;24008;42.664;23.372;2023-06-24T09:46:59;14.43;;;12.75;;
6135;SDS011;24008;42.664;23.372;2023-06-24T09:49:28;15.43;;;13.80;;
6135;SDS011;24008;42.664;23.372;2023-06-24T09:51:55;14.40;;;12.95;;
6135;SDS011;24008;42.664;23.372;2023-06-24T09:54:24;14.40;;;12.90;;
6135;SDS011;24008;42.664;23.372;2023-06-24T09:56:53;14.43;;;13.13;;
6135;SDS011;24008;42.664;23.372;2023-06-24T09:59:24;15.63;;;14.02;;
6135;SDS011;24008;42.664;23.372;2023-06-24T10:01:53;16.58;;;14.05;;
6135;SDS011;24008;42.664;23.372;2023-06-24T10:04:21;16.60;;;13.45;;
6135;SDS011;24008;42.664;23.372;2023-06-24T10:06:50;15.35;;;12.90;;
6135;SDS011;24008;42.664;23.372;2023-06-24T10:09:17;15.57;;;13.95;;
6135;SDS011;24008;42.664;23.372;2023-06-24T10:11:44;14.45;;;12.95;;
6135;SDS011;24008;42.664;23.372;2023-06-24T10:14:12;17.67;;;13.55;;
6135;SDS011;24008;42.664;23.372;2023-06-24T10:16:40;13.98;;;12.13;;
6135;SDS011;24008;42.664;23.372;2023-06-24T10:19:07;17.00;;;12.77;;
6135;SDS011;24008;42.664;23.372;2023-06-24T10:21:44;17.45;;;12.57;;
6135;SDS011;24008;42.664;23.372;2023-06-24T10:24:14;14.55;;;13.05;;
6135;SDS011;24008;42.664;23.372;2023-06-24T10:26:54;14.40;;;12.27;;
6135;SDS011;24008;42.664;23.372;2023-06-24T10:29:30;14.18;;;12.23;;
6135;SDS011;24008;42.664;23.372;2023-06-24T10:32:00;15.20;;;12.02;;
6135;SDS011;24008;42.664;23.372;2023-06-24T10:34:31;13.20;;;11.88;;
6135;SDS011;24008;42.664;23.372;2023-06-24T10:37:07;13.48;;;12.07;;
6135;SDS011;24008;42.664;23.372;2023-06-24T10:39:38;13.60;;;11.70;;
6135;SDS011;24008;42.664;23.372;2023-06-24T10:45:13;12.45;;;10.90;;
6135;SDS011;24008;42.664;23.372;2023-06-24T10:47:42;12.55;;;11.30;;
6135;SDS011;24008;42.664;23.372;2023-06-24T10:50:11;12.82;;;11.45;;
6135;SDS011;24008;42.664;23.372;2023-06-24T10:52:39;13.65;;;10.90;;
6135;SDS011;24008;42.664;23.372;2023-06-24T10:55:08;12.50;;;10.57;;
6135;SDS011;24008;42.664;23.372;2023-06-24T10:57:35;11.38;;;10.25;;
6135;SDS011;24008;42.664;23.372;2023-06-24T11:00:03;15.10;;;9.75;;
6135;SDS011;24008;42.664;23.372;2023-06-24T11:02:31;11.30;;;10.10;;
6135;SDS011;24008;42.664;23.372;2023-06-24T11:04:58;12.18;;;10.95;;
6135;SDS011;24008;42.664;23.372;2023-06-24T11:07:26;13.30;;;10.02;;
6135;SDS011;24008;42.664;23.372;2023-06-24T11:09:57;12.30;;;10.63;;
6135;SDS011;24008;42.664;23.372;2023-06-24T11:12:27;12.00;;;10.60;;
6135;SDS011;24008;42.664;23.372;2023-06-24T11:14:55;14.57;;;10.38;;
6135;SDS011;24008;42.664;23.372;2023-06-24T11:17:23;13.20;;;10.32;;
6135;SDS011;24008;42.664;23.372;2023-06-24T11:19:51;12.00;;;10.75;;
6135;SDS011;24008;42.664;23.372;2023-06-24T11:22:18;12.55;;;11.27;;
6135;SDS011;24008;42.664;23.372;2023-06-24T11:24:45;16.30;;;10.88;;
6135;SDS011;24008;42.664;23.372;2023-06-24T11:27:12;10.85;;;9.82;;
6135;SDS011;24008;42.664;23.372;2023-06-24T11:29:40;11.25;;;10.07;;
6135;SDS011;24008;42.664;23.372;2023-06-24T11:32:07;12.38;;;9.82;;
6135;SDS011;24008;42.664;23.372;2023-06-24T11:34:35;10.82;;;9.30;;
6135;SDS011;24008;42.664;23.372;2023-06-24T11:37:11;11.02;;;9.18;;
6135;SDS011;24008;42.664;23.372;2023-06-24T11:39:39;10.70;;;9.38;;
6135;SDS011;24008;42.664;23.372;2023-06-24T11:42:06;10.00;;;9.00;;
6135;SDS011;24008;42.664;23.372;2023-06-24T11:44:34;9.93;;;8.85;;
6135;SDS011;24008;42.664;23.372;2023-06-24T11:47:06;10.18;;;9.07;;
6135;SDS011;24008;42.664;23.372;2023-06-24T11:49:47;10.80;;;9.35;;
6135;SDS011;24008;42.664;23.372;2023-06-24T11:52:14;11.50;;;8.98;;
6135;SDS011;24008;42.664;23.372;2023-06-24T11:54:41;11.13;;;9.75;;
6135;SDS011;24008;42.664;23.372;2023-06-24T11:57:08;11.80;;;10.55;;
6135;SDS011;24008;42.664;23.372;2023-06-24T11:59:55;10.88;;;9.60;;
6135;SDS011;24008;42.664;23.372;2023-06-24T12:02:23;11.52;;;10.40;;
6135;SDS011;24008;42.664;23.372;2023-06-24T12:04:50;11.27;;;9.45;;
6135;SDS011;24008;42.664;23.372;2023-06-24T12:07:17;11.30;;;10.10;;
6135;SDS011;24008;42.664;23.372;2023-06-24T12:09:44;11.13;;;10.13;;
6135;SDS011;24008;42.664;23.372;2023-06-24T12:12:10;14.75;;;10.63;;
6135;SDS011;24008;42.664;23.372;2023-06-24T12:14:37;11.60;;;9.88;;
6135;SDS011;24008;42.664;23.372;2023-06-24T12:17:04;12.15;;;10.38;;
6135;SDS011;24008;42.664;23.372;2023-06-24T12:19:32;13.73;;;10.38;;
6135;SDS011;24008;42.664;23.372;2023-06-24T12:21:59;12.90;;;10.20;;
6135;SDS011;24008;42.664;23.372;2023-06-24T12:24:25;11.27;;;10.10;;
6135;SDS011;24008;42.664;23.372;2023-06-24T12:26:52;12.48;;;10.95;;
6135;SDS011;24008;42.664;23.372;2023-06-24T12:29:19;12.25;;;10.07;;
6135;SDS011;24008;42.664;23.372;2023-06-24T12:31:46;14.05;;;10.73;;
6135;SDS011;24008;42.664;23.372;2023-06-24T12:34:13;11.50;;;10.30;;
6135;SDS011;24008;42.664;23.372;2023-06-24T12:36:41;11.70;;;10.55;;
6135;SDS011;24008;42.664;23.372;2023-06-24T12:39:08;11.73;;;10.50;;
6135;SDS011;24008;42.664;23.372;2023-06-24T12:41:34;11.95;;;10.80;;
6135;SDS011;24008;42.664;23.372;2023-06-24T12:44:01;11.48;;;10.38;;
6135;SDS011;24008;42.664;23.372;2023-06-24T12:46:28;13.13;;;11.00;;
6135;SDS011;24008;42.664;23.372;2023-06-24T12:48:55;14.05;;;11.23;;
6135;SDS011;24008;42.664;23.372;2023-06-24T12:51:22;12.65;;;10.50;;
6135;SDS011;24008;42.664;23.372;2023-06-24T12:53:51;14.60;;;10.52;;
6135;SDS011;24008;42.664;23.372;2023-06-24T12:56:21;18.45;;;12.35;;
6135;SDS011;24008;42.664;23.372;2023-06-24T12:58:48;16.38;;;11.60;;
6135;SDS011;24008;42.664;23.372;2023-06-24T13:01:14;11.85;;;10.63;;
6135;SDS011;24008;42.664;23.372;2023-06-24T13:03:41;11.32;;;10.23;;
6135;SDS011;24008;42.664;23.372;2023-06-24T13:06:08;12.85;;;10.90;;
6135;SDS011;24008;42.664;23.372;2023-06-24T13:08:35;11.40;;;10.20;;
6135;SDS011;24008;42.664;23.372;2023-06-24T13:11:03;10.38;;;9.43;;
6135;SDS011;24008;42.664;23.372;2023-06-24T13:13:30;11.30;;;10.00;;
6135;SDS011;24008;42.664;23.372;2023-06-24T13:15:57;12.35;;;10.57;;
6135;SDS011;24008;42.664;23.372;2023-06-24T13:18:24;11.52;;;9.98;;
6135;SDS011;24008;42.664;23.372;2023-06-24T13:20:50;12.27;;;10.23;;
6135;SDS011;24008;42.664;23.372;2023-06-24T13:23:17;12.70;;;10.27;;
6135;SDS011;24008;42.664;23.372;2023-06-24T13:25:44;14.10;;;10.73;;
6135;SDS011;24008;42.664;23.372;2023-06-24T13:28:12;11.85;;;10.65;;
6135;SDS011;24008;42.664;23.372;2023-06-24T13:30:39;13.77;;;10.98;;
6135;SDS011;24008;42.664;23.372;2023-06-24T13:33:06;15.73;;;10.80;;
6135;SDS011;24008;42.664;23.372;2023-06-24T13:35:34;12.02;;;10.82;;
6135;SDS011;24008;42.664;23.372;2023-06-24T13:38:01;22.05;;;12.38;;
6135;SDS011;24008;42.664;23.372;2023-06-24T13:40:29;23.13;;;10.10;;
6135;SDS011;24008;42.664;23.372;2023-06-24T13:42:56;28.42;;;10.25;;
6135;SDS011;24008;42.664;23.372;2023-06-24T13:45:24;25.33;;;9.60;;
6135;SDS011;24008;42.664;23.372;2023-06-24T13:47:51;25.42;;;10.43;;
6135;SDS011;24008;42.664;23.372;2023-06-24T13:50:18;23.15;;;9.63;;
6135;SDS011;24008;42.664;23.372;2023-06-24T13:52:48;17.27;;;8.35;;
6135;SDS011;24008;42.664;23.372;2023-06-24T13:55:15;12.43;;;7.57;;
6135;SDS011;24008;42.664;23.372;2023-06-24T13:57:42;22.08;;;7.75;;
6135;SDS011;24008;42.664;23.372;2023-06-24T14:00:09;15.13;;;7.65;;
6135;SDS011;24008;42.664;23.372;2023-06-24T14:02:39;11.25;;;6.93;;
6135;SDS011;24008;42.664;23.372;2023-06-24T14:05:07;9.50;;;7.22;;
6135;SDS011;24008;42.664;23.372;2023-06-24T14:07:34;15.90;;;8.13;;
6135;SDS011;24008;42.664;23.372;2023-06-24T14:10:01;12.90;;;7.65;;
6135;SDS011;24008;42.664;23.372;2023-06-24T14:12:28;17.27;;;7.93;;
6135;SDS011;24008;42.664;23.372;2023-06-24T14:14:54;13.98;;;7.85;;
6135;SDS011;24008;42.664;23.372;2023-06-24T14:17:21;16.58;;;8.10;;
6135;SDS011;24008;42.664;23.372;2023-06-24T14:19:49;15.18;;;7.25;;
6135;SDS011;24008;42.664;23.372;2023-06-24T14:22:16;12.40;;;7.68;;
6135;SDS011;24008;42.664;23.372;2023-06-24T14:24:43;13.48;;;7.57;;
6135;SDS011;24008;42.664;23.372;2023-06-24T14:27:10;13.77;;;6.75;;
6135;SDS011;24008;42.664;23.372;2023-06-24T14:29:36;14.63;;;7.45;;
6135;SDS011;24008;42.664;23.372;2023-06-24T14:32:04;13.38;;;7.28;;